This is the latest recevied weather packets stored in our database for station/object OE3MHU-12. If no packets are shown the sender has not sent any weather packets the latest 10 day(s).
| Time | Temp. | Humidity | Pressure | Rain* | Wind** | Luminosity | Snow |
|---|---|---|---|---|---|---|---|
| 1788721961 | 14.44° C | 57% | 1025.6 hPa | 0 mm | - | - | - |
| 1788718361 | 18.33° C | 49% | 1025.2 hPa | 0 mm | - | - | - |
| 1788714761 | 21.11° C | 38% | 1024.8 hPa | 0 mm | - | - | - |
| 1788707561 | 24.44° C | 37% | 1024.3 hPa | 0 mm | - | - | - |
| 1788704049 | 25.56° C | 37% | 1024.7 hPa | 0 mm | - | - | - |
| 1788703962 | 25.56° C | 37% | 1024.7 hPa | 0 mm | - | - | - |
| 1788702162 | 25.56° C | 35% | 1024.9 hPa | 0 mm | - | - | - |
| 1788700362 | 25.56° C | 36% | 1024.9 hPa | 0 mm | - | - | - |
| 1788696762 | 25° C | 38% | 1025.3 hPa | 0 mm | - | - | - |
| 1788693162 | 24.44° C | 41% | 1025.7 hPa | 0 mm | - | - | - |
| 1788689562 | 23.89° C | 45% | 1026.1 hPa | 0 mm | - | - | - |
| 1788685962 | 22.22° C | 50% | 1026.4 hPa | 0 mm | - | - | - |
| 1788684163 | 20.56° C | 55% | 1026.4 hPa | 0 mm | - | - | - |
| 1788682363 | 20.56° C | 55% | 1026.3 hPa | 0 mm | - | - | - |
| 1788675163 | 12.22° C | 81% | 1025.6 hPa | 0 mm | - | - | - |
| 1788671563 | 9.44° C | 81% | 1025 hPa | 0 mm | - | - | - |
| 1788669763 | 9.44° C | 81% | 1024.8 hPa | 0 mm | - | - | - |
| 1788667963 | 9.44° C | 81% | 1024.5 hPa | 0 mm | - | - | - |
| 1788664364 | 10.56° C | 79% | 1024.2 hPa | 0 mm | - | - | - |
| 1788662565 | 10.56° C | 78% | 1023.9 hPa | 0 mm | - | - | - |
| 1788660764 | 11.11° C | 77% | 1023.8 hPa | 0 mm | - | - | - |
| 1788658964 | 11.67° C | 77% | 1023.6 hPa | 0 mm | - | - | - |
| 1788657164 | 11.67° C | 75% | 1023.4 hPa | 0 mm | - | - | - |
| 1788653564 | 13.33° C | 73% | 1023 hPa | 0 mm | - | - | - |
| 1788651764 | 13.89° C | 72% | 1022.8 hPa | 0 mm | - | - | - |
* Rain latest hour (hover to see other rain measurements)
** Current wind speed in m/s (hover to see current wind gust speed)